Time;durP1;ratioP1;P1;durP2;ratioP2;P2;SDS_P1;SDS_P2;PMS_P1;PMS_P2;Temp;Humidity;BMP_temperature;BMP_pressure;BME280_temperature;BME280_humidity;BME280_pressure;Samples;Min_cycle;Max_cycle;Signal;HPM_P1;HPM_P2
2023/10/18 00:01:04;;;;;;;11.68;8.50;;;;;;;3.95;100.00;101686.00;10406296;28;20113;-75
2023/10/18 00:06:15;;;;;;;11.65;7.70;;;;;;;3.92;100.00;101670.88;10415914;28;20057;-75
2023/10/18 00:11:16;;;;;;;15.52;8.27;;;;;;;3.73;100.00;101638.81;10427384;28;20063;-74
2023/10/18 00:16:17;;;;;;;16.35;9.05;;;;;;;3.94;100.00;101662.50;10397487;28;20041;-75
2023/10/18 00:21:17;;;;;;;12.57;7.88;;;;;;;3.94;100.00;101663.34;10415187;28;20056;-76
2023/10/18 00:26:17;;;;;;;18.50;8.95;;;;;;;3.92;100.00;101659.13;10415990;28;20037;-75
2023/10/18 00:31:20;;;;;;;20.85;9.95;;;;;;;3.89;100.00;101649.47;10415023;28;20041;-76
2023/10/18 00:36:20;;;;;;;19.90;10.60;;;;;;;3.86;100.00;101658.00;10414964;28;20040;-74
2023/10/18 00:41:32;;;;;;;17.55;9.00;;;;;;;3.81;100.00;101644.97;10415140;28;20065;-75
2023/10/18 00:46:33;;;;;;;17.95;10.90;;;;;;;3.80;100.00;101640.56;10414823;28;20034;-76
2023/10/18 00:51:34;;;;;;;17.25;10.55;;;;;;;3.80;100.00;101635.13;10413130;28;20061;-75
2023/10/18 00:56:34;;;;;;;25.35;12.07;;;;;;;3.81;100.00;101636.81;10412591;28;20037;-76
2023/10/18 01:01:35;;;;;;;23.33;11.75;;;;;;;3.82;100.00;101633.06;10420174;28;20049;-75
2023/10/18 01:06:36;;;;;;;25.05;12.05;;;;;;;3.84;100.00;101631.00;10411800;28;20060;-76
2023/10/18 01:11:37;;;;;;;22.23;12.82;;;;;;;3.79;100.00;101619.81;10421257;28;20041;-77
2023/10/18 01:16:37;;;;;;;22.02;11.40;;;;;;;3.79;100.00;101614.34;10406002;28;20387;-75
2023/10/18 01:21:38;;;;;;;22.65;11.27;;;;;;;3.77;100.00;101610.97;10421536;28;20037;-77
2023/10/18 01:26:39;;;;;;;23.35;11.13;;;;;;;3.78;100.00;101604.50;10422032;28;20041;-76
2023/10/18 01:31:44;;;;;;;17.50;11.00;;;;;;;3.75;100.00;101599.44;10422203;28;20044;-77
2023/10/18 01:36:46;;;;;;;21.88;9.90;;;;;;;3.74;100.00;101592.31;10420817;28;20060;-77
2023/10/18 01:41:58;;;;;;;22.77;10.88;;;;;;;3.76;100.00;101600.28;10420724;28;20034;-76
2023/10/18 01:47:06;;;;;;;18.92;10.20;;;;;;;3.73;100.00;101601.50;10402961;28;20037;-78
2023/10/18 01:52:08;;;;;;;20.38;11.23;;;;;;;3.70;100.00;101596.47;10419582;28;20060;-77
2023/10/18 01:57:11;;;;;;;19.65;10.05;;;;;;;3.68;100.00;101582.19;10420931;28;20493;-77
2023/10/18 02:02:13;;;;;;;18.48;10.27;;;;;;;3.69;100.00;101577.56;10418224;28;20041;-76
2023/10/18 02:07:17;;;;;;;21.95;10.35;;;;;;;3.32;100.00;101531.25;10419079;28;20101;-79
2023/10/18 02:12:20;;;;;;;18.23;11.50;;;;;;;3.65;100.00;101563.50;10410325;28;20191;-76
2023/10/18 02:17:21;;;;;;;19.40;11.43;;;;;;;3.26;100.00;101518.41;10411920;28;20044;-75
2023/10/18 02:22:22;;;;;;;21.92;11.50;;;;;;;3.58;100.00;101570.75;10418315;28;20049;-75
2023/10/18 02:27:23;;;;;;;19.45;10.48;;;;;;;3.58;100.00;101573.47;10420432;28;20072;-75
2023/10/18 02:32:31;;;;;;;21.98;10.32;;;;;;;3.57;100.00;101564.44;10418975;28;20044;-76
2023/10/18 02:37:32;;;;;;;21.42;10.93;;;;;;;3.57;100.00;101569.06;10417988;28;20424;-76
2023/10/18 02:42:32;;;;;;;17.92;10.77;;;;;;;3.54;100.00;101566.72;10418233;28;20064;-76
2023/10/18 02:47:33;;;;;;;18.67;11.38;;;;;;;3.52;100.00;101556.00;10416632;28;20105;-76
2023/10/18 02:52:35;;;;;;;22.90;12.07;;;;;;;3.50;100.00;101539.03;10418821;28;20044;-75
2023/10/18 02:57:35;;;;;;;23.98;10.68;;;;;;;3.50;100.00;101539.03;10418187;28;20057;-75
2023/10/18 03:02:36;;;;;;;18.38;11.00;;;;;;;3.46;100.00;101534.16;10416926;28;20057;-76
2023/10/18 03:07:37;;;;;;;23.45;12.40;;;;;;;3.44;100.00;101527.03;10416126;28;20048;-76
2023/10/18 03:12:38;;;;;;;21.60;11.60;;;;;;;3.44;100.00;101524.28;10416752;28;20495;-76
2023/10/18 03:17:38;;;;;;;22.17;12.52;;;;;;;3.40;100.00;101511.25;10417180;28;20105;-76
2023/10/18 03:22:43;;;;;;;26.95;13.05;;;;;;;3.43;100.00;101508.16;10431681;28;20563;-76
2023/10/18 03:27:50;;;;;;;22.00;11.63;;;;;;;3.42;100.00;101501.88;10417352;28;20410;-77
2023/10/18 03:32:51;;;;;;;23.08;13.85;;;;;;;3.44;100.00;101490.78;10415992;28;20122;-76
2023/10/18 03:37:56;;;;;;;26.73;13.77;;;;;;;3.43;100.00;101481.78;10415227;28;20030;-75
2023/10/18 03:42:59;;;;;;;22.73;13.73;;;;;;;3.41;100.00;101472.97;10406268;28;20045;-77
2023/10/18 03:47:59;;;;;;;24.25;12.95;;;;;;;3.38;100.00;101472.50;10416618;28;20037;-78
2023/10/18 03:53:00;;;;;;;32.55;15.45;;;;;;;3.40;100.00;101463.09;10417045;28;20038;-77
2023/10/18 03:58:01;;;;;;;32.38;14.88;;;;;;;3.33;100.00;101437.72;10416869;28;20048;-76
2023/10/18 04:03:07;;;;;;;30.50;14.77;;;;;;;3.43;100.00;101453.69;10415546;28;20052;-78
2023/10/18 04:08:16;;;;;;;25.40;14.75;;;;;;;3.42;100.00;101447.44;10414834;28;20109;-77
2023/10/18 04:13:17;;;;;;;26.60;14.90;;;;;;;3.40;100.00;101444.06;10412952;28;20067;-78
2023/10/18 04:18:25;;;;;;;30.83;15.02;;;;;;;3.37;100.00;101438.16;10415838;28;20458;-76
2023/10/18 04:23:26;;;;;;;30.00;16.52;;;;;;;3.35;100.00;101429.34;10406470;28;20046;-77
2023/10/18 04:28:30;;;;;;;32.72;17.10;;;;;;;3.24;100.00;101411.63;10415425;28;20042;-77
2023/10/18 04:33:41;;;;;;;39.95;18.48;;;;;;;3.30;100.00;101429.91;10399511;28;20040;-77
2023/10/18 04:38:45;;;;;;;36.38;18.55;;;;;;;3.30;100.00;101416.31;10419336;28;20033;-79
2023/10/18 04:43:45;;;;;;;32.47;16.30;;;;;;;3.27;100.00;101405.81;10422214;28;20045;-79
2023/10/18 04:53:49;;;;;;;31.88;16.45;;;;;;;3.21;100.00;101382.09;10422651;28;20045;-78
2023/10/18 04:58:49;;;;;;;41.13;19.42;;;;;;;3.20;100.00;101377.69;10421265;28;20045;-77
2023/10/18 05:03:50;;;;;;;35.80;17.70;;;;;;;3.21;100.00;101373.94;10422004;28;20115;-79
2023/10/18 05:08:51;;;;;;;40.92;18.75;;;;;;;3.18;100.00;101368.88;10413098;28;20037;-75
2023/10/18 05:13:56;;;;;;;37.08;18.65;;;;;;;3.21;100.00;101373.94;10436117;28;20037;-78
2023/10/18 05:18:58;;;;;;;41.33;20.33;;;;;;;3.20;100.00;101370.38;10421536;28;20045;-77
2023/10/18 05:23:58;;;;;;;39.50;18.70;;;;;;;3.19;100.00;101356.97;10420529;28;20493;-78
2023/10/18 05:29:02;;;;;;;44.90;20.40;;;;;;;3.21;100.00;101360.34;10421783;28;20037;-78
2023/10/18 05:44:20;;;;;;;42.00;20.80;;;;;;;3.17;100.00;101345.44;10418338;28;20045;-78
2023/10/18 05:49:23;;;;;;;42.92;21.58;;;;;;;3.15;100.00;101347.50;10421462;28;20030;-77
2023/10/18 05:54:31;;;;;;;48.97;21.15;;;;;;;3.16;100.00;101343.75;10420377;28;20080;-78
2023/10/18 05:59:32;;;;;;;41.95;19.15;;;;;;;2.92;100.00;101302.28;10420245;28;20091;-78
2023/10/18 06:04:38;;;;;;;44.30;21.42;;;;;;;3.18;100.00;101331.66;10419071;28;20676;-78
2023/10/18 06:14:46;;;;;;;49.10;21.98;;;;;;;3.21;100.00;101323.06;10419251;28;20041;-77
2023/10/18 06:19:49;;;;;;;55.00;23.40;;;;;;;3.25;100.00;101320.81;10417455;28;20041;-78
2023/10/18 06:24:51;;;;;;;46.25;20.33;;;;;;;2.84;100.00;101269.78;10413424;28;20087;-78
2023/10/18 06:29:53;;;;;;;49.63;22.27;;;;;;;3.31;100.00;101320.03;10416532;28;20037;-78
2023/10/18 06:34:57;;;;;;;45.88;22.17;;;;;;;3.35;100.00;101321.34;10415800;28;20041;-78
2023/10/18 06:40:01;;;;;;;43.45;21.80;;;;;;;3.39;100.00;101310.88;10419293;28;20043;-79
2023/10/18 06:45:10;;;;;;;48.30;22.27;;;;;;;3.46;100.00;101309.06;10433251;28;20044;-78
2023/10/18 06:50:26;;;;;;;44.67;21.85;;;;;;;3.54;100.00;101313.53;10418231;28;20041;-77
2023/10/18 06:55:35;;;;;;;43.28;21.17;;;;;;;3.53;100.00;101307.22;10417402;28;20045;-77
2023/10/18 07:00:43;;;;;;;44.05;20.13;;;;;;;3.68;100.00;101301.72;10418893;28;20520;-78
2023/10/18 07:05:46;;;;;;;45.72;19.25;;;;;;;3.77;100.00;101314.13;10411907;28;20053;-77
2023/10/18 07:10:54;;;;;;;42.08;20.23;;;;;;;3.77;100.00;101281.44;10416691;28;20041;-79
2023/10/18 07:15:58;;;;;;;43.30;20.30;;;;;;;3.93;100.00;101287.63;10417424;28;20099;-77
2023/10/18 07:21:05;;;;;;;44.92;20.23;;;;;;;4.02;100.00;101278.25;10417320;28;20422;-78
2023/10/18 07:26:07;;;;;;;41.05;18.80;;;;;;;4.05;100.00;101266.91;10416687;28;20044;-78
2023/10/18 07:31:11;;;;;;;38.88;20.08;;;;;;;4.20;100.00;101275.81;10414308;28;20042;-77
2023/10/18 07:36:12;;;;;;;35.47;18.58;;;;;;;4.30;100.00;101261.81;10416864;28;20048;-78
2023/10/18 07:41:12;;;;;;;36.08;18.65;;;;;;;4.35;100.00;101247.56;10412497;28;20052;-77
2023/10/18 07:46:19;;;;;;;36.90;18.20;;;;;;;4.55;100.00;101253.94;10415663;28;20044;-75
2023/10/18 07:51:26;;;;;;;30.58;16.05;;;;;;;4.62;100.00;101246.59;10414992;28;20097;-78
2023/10/18 07:56:27;;;;;;;34.72;18.00;;;;;;;4.75;100.00;101244.94;10414792;28;20042;-76
2023/10/18 08:06:48;;;;;;;34.72;17.23;;;;;;;5.03;100.00;101237.44;10412927;28;20057;-77
2023/10/18 08:11:50;;;;;;;34.28;16.63;;;;;;;5.21;100.00;101236.00;10412494;28;20096;-78
2023/10/18 08:16:57;;;;;;;33.28;14.75;;;;;;;5.35;100.00;101234.91;10407776;28;20486;-76
2023/10/18 08:22:21;;;;;;;29.52;14.48;;;;;;;5.47;100.00;101225.03;10403094;28;20045;-79
2023/10/18 08:27:18;;;;;;;27.85;13.57;;;;;;;5.69;100.00;101230.25;10400337;28;20045;-77
2023/10/18 08:32:26;;;;;;;22.13;12.65;;;;;;;5.84;100.00;101216.34;10409914;28;20037;-76
2023/10/18 08:37:27;;;;;;;24.15;14.73;;;;;;;6.06;100.00;101209.59;10405603;28;20049;-75
2023/10/18 08:42:39;;;;;;;24.08;13.07;;;;;;;6.27;100.00;101199.41;10414751;28;20109;-76
2023/10/18 08:47:39;;;;;;;22.90;13.25;;;;;;;6.48;100.00;101187.28;10411641;28;20087;-76
2023/10/18 08:52:47;;;;;;;21.75;12.77;;;;;;;6.70;100.00;101185.06;10414950;28;20045;-76
2023/10/18 08:57:47;;;;;;;20.08;11.43;;;;;;;6.95;100.00;101179.59;10398354;28;20405;-76
2023/10/18 09:02:49;;;;;;;20.65;11.63;;;;;;;7.10;100.00;101175.69;10413543;28;20165;-77
2023/10/18 09:07:53;;;;;;;17.88;10.82;;;;;;;7.26;100.00;101164.19;10394757;28;20037;-76
2023/10/18 09:17:56;;;;;;;16.63;10.57;;;;;;;7.42;100.00;101103.34;10412253;28;20045;-75
2023/10/18 09:23:14;;;;;;;14.82;9.65;;;;;;;7.79;100.00;101132.63;10420229;28;20041;-75
2023/10/18 09:28:21;;;;;;;18.40;10.25;;;;;;;7.96;100.00;101122.72;10432932;28;20469;-77
2023/10/18 09:33:26;;;;;;;17.35;9.43;;;;;;;8.08;100.00;101122.75;10419136;28;20045;-76
2023/10/18 09:38:39;;;;;;;13.52;8.40;;;;;;;8.18;100.00;101103.00;10419246;28;20056;-74
2023/10/18 09:43:39;;;;;;;13.32;9.05;;;;;;;8.26;100.00;101108.97;10412025;28;20105;-75
2023/10/18 09:48:41;;;;;;;17.75;10.00;;;;;;;8.47;100.00;101099.44;10436196;28;20049;-74
2023/10/18 09:53:42;;;;;;;16.13;8.15;;;;;;;8.51;100.00;101083.31;10417260;28;20080;-73
2023/10/18 09:58:44;;;;;;;14.70;8.45;;;;;;;8.59;100.00;101074.75;10419920;28;20096;-75
2023/10/18 10:03:50;;;;;;;12.77;8.43;;;;;;;8.65;100.00;101067.50;10417594;28;20100;-71
2023/10/18 10:08:55;;;;;;;14.88;8.60;;;;;;;8.72;100.00;101059.13;10409504;28;20056;-74
2023/10/18 10:13:58;;;;;;;16.85;10.05;;;;;;;8.85;100.00;101059.75;10417355;28;20048;-75
2023/10/18 10:19:02;;;;;;;13.13;7.50;;;;;;;8.74;100.00;101015.81;10419501;28;20045;-75
2023/10/18 10:24:29;;;;;;;13.07;7.97;;;;;;;9.04;100.00;101024.75;10415580;28;20049;-75
2023/10/18 10:34:36;;;;;;;12.85;7.93;;;;;;;9.36;100.00;101024.31;10415825;28;20037;-77
2023/10/18 10:39:44;;;;;;;14.75;8.38;;;;;;;9.53;100.00;101012.56;10416220;28;20124;-74
2023/10/18 10:45:10;;;;;;;11.82;7.72;;;;;;;9.61;100.00;100993.81;10417635;28;20093;-74
2023/10/18 10:50:10;;;;;;;11.55;7.53;;;;;;;9.84;100.00;100992.88;10417473;28;20049;-75
2023/10/18 10:55:21;;;;;;;13.65;8.40;;;;;;;10.06;100.00;100979.22;10415668;28;20038;-77
2023/10/18 11:00:37;;;;;;;10.43;6.25;;;;;;;10.16;100.00;100955.72;10417904;28;20045;-75
2023/10/18 11:05:37;;;;;;;10.45;6.90;;;;;;;10.09;100.00;100911.88;10400381;28;20048;-75
2023/10/18 11:10:39;;;;;;;13.93;7.10;;;;;;;10.58;100.00;100944.28;10414904;28;20406;-75
2023/10/18 11:15:43;;;;;;;12.77;7.15;;;;;;;10.84;100.00;100928.97;10417183;28;20486;-77
2023/10/18 11:20:58;;;;;;;9.85;6.15;;;;;;;11.01;100.00;100910.47;10417091;28;20418;-75
2023/10/18 11:25:58;;;;;;;11.43;7.32;;;;;;;11.11;100.00;100913.34;10416633;28;20099;-74
2023/10/18 11:31:00;;;;;;;9.88;7.00;;;;;;;11.14;100.00;100891.88;10416811;28;20555;-74
2023/10/18 11:36:02;;;;;;;9.75;6.00;;;;;;;11.21;100.00;100881.50;10407993;28;20034;-75
2023/10/18 11:41:09;;;;;;;13.13;7.90;;;;;;;11.27;100.00;100872.22;10414562;28;20478;-76
2023/10/18 11:46:11;;;;;;;8.50;6.20;;;;;;;11.09;100.00;100849.41;10413692;28;20048;-80
2023/10/18 11:51:13;;;;;;;11.48;6.82;;;;;;;10.99;100.00;100835.50;10409832;28;20041;-74
2023/10/18 11:56:14;;;;;;;10.60;6.38;;;;;;;11.26;100.00;100835.53;10410332;28;20057;-75
2023/10/18 12:01:18;;;;;;;11.70;6.38;;;;;;;11.33;100.00;100818.81;10406589;28;20037;-73
2023/10/18 12:06:21;;;;;;;11.13;6.32;;;;;;;11.37;100.00;100800.66;10404735;28;20044;-75
2023/10/18 12:11:22;;;;;;;12.82;6.50;;;;;;;11.52;100.00;100799.94;10424594;28;20124;-74
2023/10/18 12:16:23;;;;;;;10.82;6.60;;;;;;;11.58;100.00;100787.03;10406068;28;20591;-74
2023/10/18 12:21:29;;;;;;;10.35;5.65;;;;;;;11.50;100.00;100783.66;10404659;28;20046;-74
2023/10/18 12:26:34;;;;;;;12.40;6.75;;;;;;;11.60;100.00;100768.31;10411252;28;20086;-78
2023/10/18 12:31:39;;;;;;;11.52;5.90;;;;;;;11.72;100.00;100744.13;10415538;28;20041;-74
2023/10/18 12:36:39;;;;;;;9.02;5.45;;;;;;;11.56;100.00;100736.84;10415049;28;20049;-74
2023/10/18 12:41:40;;;;;;;10.60;6.22;;;;;;;11.72;100.00;100735.88;10413994;28;20061;-75
2023/10/18 12:46:44;;;;;;;11.50;5.70;;;;;;;11.86;100.00;100720.47;10413588;28;20041;-74
2023/10/18 12:51:57;;;;;;;14.45;5.95;;;;;;;12.12;100.00;100712.38;10415364;28;20448;-73
2023/10/18 12:57:08;;;;;;;10.98;5.80;;;;;;;12.34;100.00;100698.41;10421415;28;20425;-74
2023/10/18 13:02:11;;;;;;;9.43;5.97;;;;;;;12.34;100.00;100681.00;10422088;28;20045;-73
2023/10/18 13:07:19;;;;;;;11.55;6.07;;;;;;;12.50;100.00;100683.53;10422083;28;20041;-74
2023/10/18 13:12:23;;;;;;;10.95;6.45;;;;;;;12.50;100.00;100663.38;10421070;28;20033;-74
2023/10/18 13:17:24;;;;;;;10.77;5.88;;;;;;;12.44;100.00;100662.56;10422289;28;20117;-72
2023/10/18 13:22:25;;;;;;;12.38;5.80;;;;;;;12.36;100.00;100648.44;10422202;28;20045;-77
2023/10/18 13:27:36;;;;;;;9.75;6.15;;;;;;;12.20;100.00;100631.84;10422696;28;20553;-75
2023/10/18 13:32:37;;;;;;;11.85;7.00;;;;;;;11.95;100.00;100615.16;10418233;28;20104;-78
2023/10/18 13:37:37;;;;;;;11.18;7.05;;;;;;;11.83;100.00;100604.34;10418935;28;20100;-74
2023/10/18 13:42:40;;;;;;;15.98;6.88;;;;;;;11.82;100.00;100603.50;10421308;28;20127;-75
2023/10/18 13:47:41;;;;;;;12.85;6.60;;;;;;;11.82;100.00;100591.66;10420815;28;20045;-74
2023/10/18 13:52:41;;;;;;;12.30;6.32;;;;;;;11.98;100.00;100582.38;10421451;28;20068;-74
2023/10/18 13:57:42;;;;;;;13.40;6.50;;;;;;;12.25;100.00;100556.50;10421593;28;20041;-77
2023/10/18 14:02:43;;;;;;;10.10;5.35;;;;;;;12.58;100.00;100546.88;10417111;28;20099;-76
2023/10/18 14:07:44;;;;;;;10.57;5.97;;;;;;;13.11;100.00;100539.09;10419269;28;20052;-75
2023/10/18 14:12:48;;;;;;;13.93;7.45;;;;;;;12.93;100.00;100518.38;10419906;28;20042;-77
2023/10/18 14:17:55;;;;;;;10.60;6.22;;;;;;;12.76;100.00;100528.91;10418251;28;20128;-74
2023/10/18 14:22:56;;;;;;;15.10;5.55;;;;;;;12.52;100.00;100517.59;10420981;28;20049;-76
2023/10/18 14:27:56;;;;;;;10.55;6.95;;;;;;;12.32;100.00;100508.22;10418266;28;20061;-74
2023/10/18 14:32:59;;;;;;;10.80;6.45;;;;;;;12.20;100.00;100493.03;10417844;28;20037;-74
2023/10/18 14:38:00;;;;;;;11.18;6.68;;;;;;;11.98;100.00;100496.03;10416149;28;20097;-76
2023/10/18 14:43:03;;;;;;;14.43;6.10;;;;;;;11.63;100.00;100500.31;10418590;28;20042;-74
2023/10/18 14:48:04;;;;;;;12.73;7.05;;;;;;;11.36;100.00;100500.47;10417334;28;20665;-74
2023/10/18 14:53:07;;;;;;;14.10;6.13;;;;;;;11.01;100.00;100493.69;10419067;28;20120;-73
2023/10/18 14:58:07;;;;;;;11.40;6.57;;;;;;;10.78;100.00;100492.97;10418522;28;20033;-74
2023/10/18 15:03:10;;;;;;;11.60;7.32;;;;;;;10.58;100.00;100484.56;10417102;28;20045;-74
2023/10/18 15:08:12;;;;;;;13.40;6.00;;;;;;;10.38;100.00;100479.75;10409990;28;20490;-73
2023/10/18 15:13:13;;;;;;;11.63;6.53;;;;;;;10.22;100.00;100467.75;10417968;28;20428;-72
2023/10/18 15:18:14;;;;;;;11.88;6.68;;;;;;;10.14;100.00;100460.81;10416668;28;20037;-75
2023/10/18 15:23:15;;;;;;;10.65;6.10;;;;;;;9.90;100.00;100441.03;10418130;28;20041;-73
2023/10/18 15:28:15;;;;;;;10.90;6.85;;;;;;;9.81;100.00;100448.94;10414851;28;20041;-73
2023/10/18 15:33:19;;;;;;;12.50;6.40;;;;;;;9.66;100.00;100446.88;10415031;28;20045;-75
2023/10/18 15:38:20;;;;;;;12.02;7.25;;;;;;;9.47;100.00;100429.91;10398193;28;20053;-75
2023/10/18 15:43:21;;;;;;;11.07;6.13;;;;;;;9.35;100.00;100423.72;10416256;28;20045;-72
2023/10/18 15:48:21;;;;;;;11.18;5.75;;;;;;;9.20;100.00;100412.53;10416140;28;20045;-75
2023/10/18 15:53:23;;;;;;;10.85;6.00;;;;;;;9.09;100.00;100404.22;10416619;28;20332;-73
2023/10/18 15:58:24;;;;;;;9.02;6.45;;;;;;;9.01;100.00;100396.41;10414720;28;20048;-73
2023/10/18 16:03:24;;;;;;;11.90;6.53;;;;;;;8.90;100.00;100391.88;10413488;28;20076;-74
2023/10/18 16:08:25;;;;;;;12.52;5.55;;;;;;;8.79;100.00;100382.69;10412333;28;20042;-72
2023/10/18 16:13:26;;;;;;;8.82;5.00;;;;;;;8.71;100.00;100385.88;10415279;28;20034;-73
2023/10/18 16:18:29;;;;;;;9.48;5.47;;;;;;;8.65;100.00;100379.47;10415470;28;20041;-74
2023/10/18 16:23:30;;;;;;;10.50;5.63;;;;;;;8.57;100.00;100366.19;10416078;28;20161;-71
2023/10/18 16:28:31;;;;;;;14.02;5.68;;;;;;;8.47;100.00;100355.94;10415193;28;20108;-72
2023/10/18 16:33:31;;;;;;;10.45;6.00;;;;;;;8.40;100.00;100351.66;10422583;28;20080;-72
2023/10/18 16:38:32;;;;;;;10.57;6.43;;;;;;;8.35;100.00;100355.16;10422410;28;20034;-73
2023/10/18 16:43:36;;;;;;;10.35;5.95;;;;;;;8.28;100.00;100365.47;10419195;28;20064;-72
2023/10/18 16:48:36;;;;;;;10.98;6.25;;;;;;;8.18;100.00;100338.72;10440771;28;20122;-73
2023/10/18 16:53:41;;;;;;;9.23;5.82;;;;;;;8.11;100.00;100329.03;10432989;28;20528;-72
2023/10/18 16:58:41;;;;;;;13.40;5.82;;;;;;;8.04;100.00;100327.28;10440363;28;20459;-74
2023/10/18 17:03:42;;;;;;;11.23;6.70;;;;;;;8.02;100.00;100323.13;10428764;28;20065;-72
2023/10/18 17:08:43;;;;;;;12.35;6.20;;;;;;;7.96;100.00;100314.00;10432195;28;20037;-74
2023/10/18 17:13:43;;;;;;;9.15;6.38;;;;;;;7.92;100.00;100317.47;10442434;28;20043;-73
2023/10/18 17:18:44;;;;;;;12.43;6.10;;;;;;;7.91;100.00;100310.34;10441280;28;20052;-73
2023/10/18 17:23:44;;;;;;;9.40;5.82;;;;;;;7.93;100.00;100297.22;10432169;28;20099;-72
2023/10/18 17:28:46;;;;;;;10.90;5.70;;;;;;;7.92;100.00;100295.56;10439236;28;20064;-75
2023/10/18 17:33:46;;;;;;;10.05;5.47;;;;;;;7.93;100.00;100291.75;10419259;28;20044;-73
2023/10/18 17:38:47;;;;;;;12.23;5.90;;;;;;;7.93;100.00;100276.13;10437016;28;20386;-72
2023/10/18 17:43:48;;;;;;;7.88;5.82;;;;;;;7.89;100.00;100269.47;10433887;28;20040;-73
2023/10/18 17:48:48;;;;;;;8.68;5.22;;;;;;;7.86;100.00;100257.13;10431496;28;20040;-72
2023/10/18 17:53:49;;;;;;;9.48;5.40;;;;;;;7.88;100.00;100237.69;10430392;28;20044;-73
2023/10/18 17:58:51;;;;;;;9.60;5.57;;;;;;;7.77;100.00;100223.00;10435682;28;20038;-74
2023/10/18 18:03:52;;;;;;;8.90;4.35;;;;;;;7.83;100.00;100232.97;10422659;28;20041;-72
2023/10/18 18:08:53;;;;;;;10.65;5.85;;;;;;;7.81;100.00;100224.16;10439135;28;20041;-73
2023/10/18 18:13:57;;;;;;;8.13;4.93;;;;;;;7.77;100.00;100225.75;10396083;28;20529;-74
2023/10/18 18:18:58;;;;;;;8.57;5.57;;;;;;;7.71;100.00;100212.22;10432185;28;20044;-75
2023/10/18 18:23:58;;;;;;;7.65;5.05;;;;;;;7.70;100.00;100203.16;10433551;28;20048;-76
2023/10/18 18:28:59;;;;;;;13.10;7.18;;;;;;;7.68;100.00;100180.66;10424011;28;20041;-76
2023/10/18 18:34:00;;;;;;;9.80;5.43;;;;;;;7.59;100.00;100161.09;10421844;28;20054;-74
2023/10/18 18:39:03;;;;;;;8.07;5.65;;;;;;;7.65;100.00;100160.09;10401122;28;20041;-72
2023/10/18 18:44:04;;;;;;;8.75;5.47;;;;;;;7.68;100.00;100158.75;10402528;28;20045;-73
2023/10/18 18:49:06;;;;;;;9.82;4.88;;;;;;;7.68;100.00;100145.06;10425293;28;20501;-75
2023/10/18 18:54:07;;;;;;;8.48;5.20;;;;;;;7.68;100.00;100131.34;10427952;28;20409;-73
2023/10/18 18:59:07;;;;;;;8.50;5.45;;;;;;;7.69;100.00;100127.56;10427533;28;20060;-74
2023/10/18 19:04:08;;;;;;;10.48;5.82;;;;;;;7.69;100.00;100124.81;10431709;28;20041;-72
2023/10/18 19:09:09;;;;;;;10.98;5.95;;;;;;;7.67;100.00;100107.81;10430033;28;20493;-76
2023/10/18 19:14:09;;;;;;;8.80;5.10;;;;;;;7.66;100.00;100089.69;10428611;28;20037;-75
2023/10/18 19:19:13;;;;;;;11.00;5.38;;;;;;;7.45;100.00;100042.84;10431816;28;20045;-77
2023/10/18 19:24:14;;;;;;;8.10;5.43;;;;;;;7.69;100.00;100072.75;10425966;28;20052;-79
2023/10/18 19:29:15;;;;;;;7.40;5.10;;;;;;;7.72;100.00;100061.28;10405878;28;20048;-76
2023/10/18 19:34:16;;;;;;;7.57;4.97;;;;;;;7.72;100.00;100064.00;10427967;28;20033;-78
2023/10/18 19:39:16;;;;;;;8.38;5.35;;;;;;;7.74;100.00;100064.59;10422929;28;20056;-77
2023/10/18 19:44:17;;;;;;;7.80;4.10;;;;;;;7.72;100.00;100055.78;10430280;28;20052;-75
2023/10/18 19:49:17;;;;;;;10.05;4.82;;;;;;;7.70;100.00;100052.47;10401203;28;20042;-74
2023/10/18 19:54:18;;;;;;;7.88;5.38;;;;;;;7.71;100.00;100047.81;10432994;28;20046;-74
2023/10/18 19:59:18;;;;;;;12.25;5.70;;;;;;;7.68;100.00;100047.25;10423245;28;21378;-74
2023/10/18 20:04:19;;;;;;;10.38;5.07;;;;;;;7.67;100.00;100036.56;10391123;28;20045;-74
2023/10/18 20:09:19;;;;;;;8.82;5.88;;;;;;;7.71;100.00;100023.16;10427976;28;20063;-75
2023/10/18 20:14:20;;;;;;;11.43;5.32;;;;;;;7.75;100.00;100005.97;10425058;28;20036;-74
2023/10/18 20:19:20;;;;;;;9.68;5.00;;;;;;;7.78;100.00;99983.53;10426288;28;20144;-75
2023/10/18 20:24:21;;;;;;;9.80;5.40;;;;;;;7.77;100.00;99976.41;10399978;28;20053;-75
2023/10/18 20:29:21;;;;;;;7.68;4.70;;;;;;;7.73;100.00;99958.81;10405575;28;20049;-75
2023/10/18 20:34:22;;;;;;;10.48;5.28;;;;;;;7.73;100.00;99947.88;10403928;28;20040;-74
2023/10/18 20:39:23;;;;;;;9.48;5.55;;;;;;;7.74;100.00;99960.47;10406604;28;20035;-70
2023/10/18 20:44:31;;;;;;;8.65;5.15;;;;;;;7.69;100.00;99933.03;10412423;28;20057;-68
2023/10/18 20:49:32;;;;;;;12.45;5.72;;;;;;;7.75;100.00;99940.22;10413354;28;20041;-75
2023/10/18 20:54:36;;;;;;;8.18;5.35;;;;;;;7.79;100.00;99935.88;10425380;28;20561;-74
2023/10/18 20:59:38;;;;;;;7.90;5.25;;;;;;;7.80;100.00;99923.00;10431260;28;20049;-73
2023/10/18 21:04:38;;;;;;;10.57;6.03;;;;;;;7.83;100.00;99915.09;10428174;28;20093;-73
2023/10/18 21:09:41;;;;;;;11.00;6.40;;;;;;;7.85;100.00;99907.44;10427011;28;20083;-75
2023/10/18 21:14:41;;;;;;;12.43;6.97;;;;;;;7.44;100.00;99826.75;10424221;28;20037;-74
2023/10/18 21:19:43;;;;;;;9.63;6.03;;;;;;;7.86;100.00;99886.34;10431427;28;20041;-76
2023/10/18 21:24:46;;;;;;;9.60;5.93;;;;;;;7.92;100.00;99881.69;10430391;28;20049;-77
2023/10/18 21:29:46;;;;;;;12.70;6.70;;;;;;;7.95;100.00;99871.06;10430656;28;20088;-74
2023/10/18 21:34:47;;;;;;;11.20;5.80;;;;;;;7.92;100.00;99844.19;10433512;28;20045;-80
2023/10/18 21:39:48;;;;;;;8.88;6.10;;;;;;;8.04;100.00;99865.91;10446568;28;20045;-75
2023/10/18 21:44:48;;;;;;;11.32;6.68;;;;;;;7.82;100.00;99803.81;10436693;28;20045;-74
2023/10/18 21:49:50;;;;;;;10.88;5.82;;;;;;;8.07;100.00;99841.53;10432966;28;20045;-75
2023/10/18 21:54:56;;;;;;;11.25;5.82;;;;;;;8.05;100.00;99826.44;10434233;28;20044;-74
2023/10/18 21:59:57;;;;;;;11.02;6.63;;;;;;;8.14;100.00;99826.78;10435061;28;20101;-74
2023/10/18 22:05:03;;;;;;;11.30;7.10;;;;;;;8.14;100.00;99826.78;10429587;28;20103;-77
2023/10/18 22:10:09;;;;;;;17.60;7.63;;;;;;;8.11;100.00;99808.13;10428405;28;20045;-75
2023/10/18 22:15:14;;;;;;;12.65;7.03;;;;;;;8.06;100.00;99795.19;10427054;28;20583;-76
2023/10/18 22:20:22;;;;;;;9.90;7.28;;;;;;;8.07;100.00;99791.38;10425503;28;20041;-76
2023/10/18 22:25:23;;;;;;;11.43;7.05;;;;;;;8.08;100.00;99777.41;10428594;28;20508;-74
2023/10/18 22:30:30;;;;;;;16.35;7.80;;;;;;;8.11;100.00;99761.53;10428581;28;20037;-74
2023/10/18 22:35:34;;;;;;;12.18;7.15;;;;;;;8.09;100.00;99770.00;10432273;28;20049;-75
2023/10/18 22:40:35;;;;;;;15.63;8.25;;;;;;;8.00;100.00;99757.88;10422906;28;20138;-77
2023/10/18 22:45:41;;;;;;;16.80;9.20;;;;;;;7.90;100.00;99750.44;10431057;28;20103;-75
2023/10/18 22:50:41;;;;;;;15.93;9.00;;;;;;;7.81;100.00;99752.00;10430303;28;20075;-77
2023/10/18 22:55:46;;;;;;;15.23;9.55;;;;;;;7.77;100.00;99746.25;10426743;28;20037;-80
2023/10/18 23:00:49;;;;;;;19.23;10.90;;;;;;;7.68;100.00;99729.44;10418452;28;20405;-79
2023/10/18 23:05:52;;;;;;;16.77;10.93;;;;;;;7.18;100.00;99664.19;10418523;28;20041;-75
2023/10/18 23:10:56;;;;;;;17.98;11.20;;;;;;;7.53;100.00;99718.41;10413329;28;20097;-84
2023/10/18 23:15:57;;;;;;;16.90;10.73;;;;;;;7.45;100.00;99708.75;10417124;28;20044;-83
2023/10/18 23:21:24;;;;;;;20.92;11.85;;;;;;;7.41;100.00;99693.94;10417352;28;20048;-82
2023/10/18 23:42:14;;;;;;;23.80;13.98;;;;;;;7.28;100.00;99672.50;10415279;28;20076;-76